createdAt,value
2023-03-31T00:01:25.835Z,79.50
2023-03-31T00:04:02.117Z,79.24
2023-03-31T00:06:30.718Z,78.92
2023-03-31T00:09:02.047Z,79.08
2023-03-31T00:11:30.702Z,78.62
2023-03-31T00:14:00.000Z,78.58
2023-03-31T00:16:28.173Z,78.52
2023-03-31T00:18:56.192Z,78.44
2023-03-31T00:21:29.666Z,78.60
2023-03-31T00:23:59.894Z,78.83
2023-03-31T00:26:28.204Z,79.17
2023-03-31T00:28:56.810Z,78.98
2023-03-31T00:31:27.199Z,79.72
2023-03-31T00:33:56.630Z,80.31
2023-03-31T00:36:28.171Z,79.55
2023-03-31T00:38:59.245Z,80.17
2023-03-31T00:41:29.200Z,79.93
2023-03-31T00:44:13.146Z,80.02
2023-03-31T00:46:52.450Z,79.21
2023-03-31T00:49:26.567Z,79.31
2023-03-31T00:51:58.487Z,78.85
2023-03-31T00:54:28.637Z,78.66
2023-03-31T00:57:03.423Z,79.00
2023-03-31T00:59:33.663Z,78.57
2023-03-31T01:02:04.663Z,78.18
2023-03-31T01:04:36.267Z,78.10
2023-03-31T01:07:09.351Z,78.02
2023-03-31T01:09:38.888Z,78.07
2023-03-31T01:12:09.899Z,78.18
2023-03-31T01:14:37.783Z,77.92
2023-03-31T01:17:09.896Z,78.08
2023-03-31T01:19:54.557Z,79.25
2023-03-31T01:23:07.131Z,79.12
2023-03-31T01:26:16.322Z,79.02
2023-03-31T01:28:52.498Z,78.87
2023-03-31T01:31:53.953Z,78.48
2023-03-31T01:34:55.105Z,78.84
2023-03-31T01:38:09.446Z,79.37
2023-03-31T01:41:04.278Z,80.57
2023-03-31T01:43:42.351Z,80.82
2023-03-31T01:46:22.264Z,81.17
2023-03-31T01:48:58.491Z,80.60
2023-03-31T01:51:34.281Z,81.20
2023-03-31T01:54:08.042Z,81.28
2023-03-31T01:56:40.541Z,81.46
2023-03-31T01:59:13.155Z,82.88
2023-03-31T02:01:48.969Z,81.70
2023-03-31T02:04:22.163Z,81.85
2023-03-31T02:06:56.268Z,81.89
2023-03-31T02:09:27.924Z,82.30
2023-03-31T02:11:59.327Z,82.65
2023-03-31T02:14:31.549Z,83.17
2023-03-31T02:17:02.362Z,83.97
2023-03-31T02:19:34.767Z,84.38
2023-03-31T02:22:05.120Z,85.17
2023-03-31T02:24:34.622Z,84.76
2023-03-31T02:27:07.918Z,85.26
2023-03-31T02:29:36.448Z,85.21
2023-03-31T02:32:12.688Z,84.95
2023-03-31T02:34:40.961Z,85.51
2023-03-31T02:37:09.152Z,85.51
2023-03-31T02:39:41.219Z,86.29
2023-03-31T02:42:10.846Z,85.25
2023-03-31T02:44:40.212Z,85.56
2023-03-31T02:47:11.208Z,86.09
2023-03-31T02:49:42.931Z,86.22
2023-03-31T02:52:35.777Z,86.72
2023-03-31T02:55:16.432Z,86.84
2023-03-31T02:58:09.815Z,87.29
2023-03-31T03:00:49.684Z,86.72
2023-03-31T03:03:31.499Z,86.55
2023-03-31T03:06:07.201Z,86.67
2023-03-31T03:09:06.361Z,87.14
2023-03-31T03:11:47.251Z,86.58
2023-03-31T03:14:24.701Z,87.11
2023-03-31T03:16:58.809Z,87.26
2023-03-31T03:19:27.386Z,87.57
2023-03-31T03:21:55.584Z,87.17
2023-03-31T03:24:23.626Z,87.64
2023-03-31T03:26:51.832Z,87.35
2023-03-31T03:29:21.188Z,87.23
2023-03-31T03:31:49.324Z,87.47
2023-03-31T03:34:18.638Z,87.46
2023-03-31T03:36:47.017Z,87.43
2023-03-31T03:39:14.951Z,88.08
2023-03-31T03:41:42.887Z,88.29
2023-03-31T03:44:10.685Z,87.91
2023-03-31T03:46:40.006Z,88.10
2023-03-31T03:49:07.980Z,88.67
2023-03-31T03:51:35.890Z,88.34
2023-03-31T03:54:03.846Z,88.29
2023-03-31T03:56:31.843Z,88.43
2023-03-31T03:58:59.681Z,88.78
2023-03-31T04:01:27.506Z,89.21
2023-03-31T04:03:56.770Z,88.69
2023-03-31T04:06:24.693Z,89.33
2023-03-31T04:08:52.586Z,89.47
2023-03-31T04:11:20.774Z,89.87
2023-03-31T04:13:48.708Z,89.70
2023-03-31T04:16:17.250Z,89.28
2023-03-31T04:18:46.313Z,89.87
2023-03-31T04:21:23.004Z,89.26
2023-03-31T04:23:58.569Z,89.47
2023-03-31T04:26:31.144Z,89.32
2023-03-31T04:29:00.458Z,89.29
2023-03-31T04:31:30.895Z,89.63
2023-03-31T04:34:02.382Z,89.38
2023-03-31T04:36:32.381Z,89.68
2023-03-31T04:39:01.300Z,89.87
2023-03-31T04:41:29.211Z,90.16
2023-03-31T04:43:57.366Z,89.96
2023-03-31T04:46:25.624Z,90.83
2023-03-31T04:48:53.580Z,90.87
2023-03-31T04:51:21.618Z,91.47
2023-03-31T04:53:50.830Z,91.22
2023-03-31T04:56:18.717Z,91.66
2023-03-31T04:58:46.588Z,91.75
2023-03-31T05:01:18.107Z,91.58
2023-03-31T05:06:16.054Z,91.77
2023-03-31T05:08:44.275Z,91.98
2023-03-31T05:11:13.528Z,91.85
2023-03-31T05:13:41.481Z,92.81
2023-03-31T05:16:10.869Z,92.67
2023-03-31T05:18:38.989Z,92.63
2023-03-31T05:21:11.953Z,94.22
2023-03-31T05:23:39.844Z,96.01
2023-03-31T05:26:08.212Z,95.73
2023-03-31T05:28:38.141Z,95.29
2023-03-31T05:31:07.093Z,95.53
2023-03-31T05:33:40.254Z,95.50
2023-03-31T05:36:10.510Z,95.77
2023-03-31T05:38:38.988Z,97.89
2023-03-31T05:41:07.616Z,97.34
2023-03-31T05:43:37.766Z,97.11
2023-03-31T05:46:06.662Z,97.51
2023-03-31T05:48:37.403Z,98.66
2023-03-31T05:51:06.156Z,99.08
2023-03-31T05:53:34.340Z,99.06
2023-03-31T05:56:05.648Z,99.24
2023-03-31T05:58:35.367Z,99.37
2023-03-31T06:01:10.149Z,99.63
2023-03-31T06:03:41.865Z,99.18
2023-03-31T06:06:13.224Z,99.83
2023-03-31T06:08:41.674Z,100.00
2023-03-31T06:11:12.470Z,100.00
2023-03-31T06:13:41.079Z,100.00
2023-03-31T06:16:13.988Z,100.00
2023-03-31T06:18:42.759Z,100.00
2023-03-31T06:21:13.887Z,100.00
2023-03-31T06:23:41.928Z,100.00
2023-03-31T06:26:10.313Z,100.00
2023-03-31T06:28:38.292Z,100.00
2023-03-31T06:31:08.090Z,100.00
2023-03-31T06:33:37.799Z,100.00
2023-03-31T06:36:07.213Z,100.00
2023-03-31T06:38:36.419Z,100.00
2023-03-31T06:41:04.663Z,100.00
2023-03-31T06:43:32.769Z,100.00
2023-03-31T06:46:01.372Z,100.00
2023-03-31T06:48:29.655Z,100.00
2023-03-31T06:51:01.616Z,100.00
2023-03-31T06:53:30.270Z,100.00
2023-03-31T06:55:58.577Z,100.00
2023-03-31T06:58:29.003Z,100.00
2023-03-31T07:00:58.883Z,100.00
2023-03-31T07:03:27.272Z,100.00
2023-03-31T07:05:56.316Z,100.00
2023-03-31T07:08:26.148Z,100.00
2023-03-31T07:10:57.779Z,99.65
2023-03-31T07:13:26.460Z,99.02
2023-03-31T07:15:54.894Z,97.69
2023-03-31T07:18:26.306Z,97.68
2023-03-31T07:20:54.640Z,96.71
2023-03-31T07:23:22.637Z,96.69
2023-03-31T07:25:52.170Z,96.34
2023-03-31T07:28:21.124Z,94.81
2023-03-31T07:30:49.766Z,93.96
2023-03-31T07:33:17.726Z,94.96
2023-03-31T07:35:51.701Z,96.30
2023-03-31T07:38:28.244Z,94.53
2023-03-31T07:41:07.767Z,92.44
2023-03-31T07:43:36.840Z,94.27
2023-03-31T07:46:05.558Z,93.04
2023-03-31T07:48:33.940Z,92.51
2023-03-31T07:51:02.264Z,92.27
2023-03-31T07:53:35.590Z,91.16
2023-03-31T07:56:05.656Z,91.76
2023-03-31T07:58:33.865Z,90.74
2023-03-31T08:01:02.112Z,90.29
2023-03-31T08:03:32.125Z,92.22
2023-03-31T08:06:00.194Z,90.27
2023-03-31T08:08:28.533Z,89.99
2023-03-31T08:10:56.475Z,89.96
2023-03-31T08:13:27.059Z,89.10
2023-03-31T08:15:55.195Z,88.02
2023-03-31T08:18:23.298Z,88.38
2023-03-31T08:20:51.307Z,89.82
2023-03-31T08:23:19.363Z,89.17
2023-03-31T08:25:47.350Z,88.17
2023-03-31T08:28:15.458Z,89.10
2023-03-31T08:30:45.281Z,87.61
2023-03-31T08:33:13.283Z,88.56
2023-03-31T08:35:41.364Z,87.74
2023-03-31T08:38:09.427Z,87.81
2023-03-31T08:40:42.060Z,88.06
2023-03-31T08:43:15.853Z,87.66
2023-03-31T08:45:48.947Z,87.38
2023-03-31T08:48:26.916Z,83.30
2023-03-31T08:51:02.019Z,83.78
2023-03-31T08:53:33.404Z,83.44
2023-03-31T08:56:02.035Z,81.41
2023-03-31T08:58:39.525Z,79.22
2023-03-31T09:01:23.220Z,77.42
2023-03-31T09:04:10.934Z,77.95
2023-03-31T09:06:44.361Z,75.23
2023-03-31T09:09:23.846Z,75.97
2023-03-31T09:11:56.106Z,76.10
2023-03-31T09:14:32.424Z,76.43
2023-03-31T09:17:14.255Z,77.21
2023-03-31T09:19:47.782Z,73.86
2023-03-31T09:22:19.724Z,73.37
2023-03-31T09:24:54.088Z,73.57
2023-03-31T09:27:22.292Z,72.08
2023-03-31T09:29:54.195Z,72.88
2023-03-31T09:32:25.990Z,75.75
2023-03-31T09:34:57.575Z,74.20
2023-03-31T09:37:28.339Z,72.24
2023-03-31T09:39:56.403Z,72.19
2023-03-31T09:42:24.393Z,73.16
2023-03-31T09:44:52.535Z,70.72
2023-03-31T09:47:28.964Z,70.19
2023-03-31T09:49:57.542Z,69.83
2023-03-31T09:52:30.918Z,70.02
2023-03-31T09:55:01.500Z,68.24
2023-03-31T09:57:33.535Z,68.56
2023-03-31T10:00:16.243Z,69.45
2023-03-31T10:02:50.696Z,68.64
2023-03-31T10:05:33.472Z,66.57
2023-03-31T10:08:21.986Z,67.51
2023-03-31T10:10:54.192Z,66.73
2023-03-31T10:13:24.979Z,67.38
2023-03-31T10:15:55.379Z,65.58
2023-03-31T10:18:34.485Z,65.71
2023-03-31T10:21:05.376Z,65.44
2023-03-31T10:23:35.819Z,63.06
2023-03-31T10:26:06.128Z,63.46
2023-03-31T10:28:37.213Z,61.63
2023-03-31T10:31:06.419Z,62.73
2023-03-31T10:33:45.182Z,60.33
2023-03-31T10:36:20.997Z,61.33
2023-03-31T10:38:51.510Z,60.54
2023-03-31T10:41:21.813Z,60.48
2023-03-31T10:43:52.452Z,60.35
2023-03-31T10:46:21.475Z,59.14
2023-03-31T10:48:52.642Z,57.00
2023-03-31T10:51:22.327Z,56.87
2023-03-31T10:53:51.609Z,57.33
2023-03-31T10:56:35.096Z,56.82
2023-03-31T10:59:32.371Z,56.70
2023-03-31T11:02:17.592Z,56.63
2023-03-31T11:04:56.630Z,56.42
2023-03-31T11:07:36.873Z,58.28
2023-03-31T11:10:22.135Z,60.34
2023-03-31T11:12:58.971Z,65.81
2023-03-31T11:15:32.385Z,72.26
2023-03-31T11:18:15.531Z,75.75
2023-03-31T11:20:59.353Z,78.81
2023-03-31T11:23:37.865Z,76.47
2023-03-31T11:26:11.976Z,76.30
2023-03-31T11:28:54.588Z,79.07
2023-03-31T11:31:34.373Z,79.19
2023-03-31T11:34:36.693Z,79.94
2023-03-31T11:37:21.474Z,78.71
2023-03-31T11:40:05.785Z,79.74
2023-03-31T11:42:39.041Z,80.10
2023-03-31T11:45:17.098Z,79.28
2023-03-31T11:47:50.927Z,79.86
2023-03-31T11:50:23.203Z,81.70
2023-03-31T11:52:59.989Z,80.88
2023-03-31T11:55:30.190Z,82.66
2023-03-31T11:58:04.245Z,83.61
2023-03-31T12:00:36.475Z,81.86
2023-03-31T12:03:11.822Z,82.46
2023-03-31T12:05:45.252Z,81.19
2023-03-31T12:08:19.691Z,80.33
2023-03-31T12:10:54.578Z,79.18
2023-03-31T12:13:41.648Z,79.31
2023-03-31T12:16:14.474Z,77.27
2023-03-31T12:18:48.178Z,76.99
2023-03-31T12:21:17.665Z,75.75
2023-03-31T12:23:47.566Z,76.63
2023-03-31T12:26:31.189Z,78.32
2023-03-31T12:29:04.762Z,76.28
2023-03-31T12:31:34.254Z,75.98
2023-03-31T12:34:05.999Z,76.34
2023-03-31T12:36:57.069Z,74.43
2023-03-31T12:39:37.618Z,73.13
2023-03-31T12:42:37.272Z,73.36
2023-03-31T12:45:17.127Z,71.46
2023-03-31T12:48:04.575Z,72.00
2023-03-31T12:50:53.511Z,71.72
2023-03-31T12:53:33.588Z,71.30
2023-03-31T12:56:03.062Z,69.82
2023-03-31T12:58:45.388Z,70.10
2023-03-31T13:01:17.099Z,69.28
2023-03-31T13:03:51.526Z,68.68
2023-03-31T13:06:55.007Z,69.25
2023-03-31T13:09:59.189Z,69.00
2023-03-31T13:12:33.122Z,70.63
2023-03-31T13:15:06.028Z,72.36
2023-03-31T13:17:36.852Z,76.70
2023-03-31T13:20:28.075Z,77.23
2023-03-31T13:23:03.620Z,79.39
2023-03-31T13:25:43.808Z,80.41
2023-03-31T13:28:25.677Z,81.50
2023-03-31T13:30:57.029Z,82.19
2023-03-31T13:33:28.743Z,82.55
2023-03-31T13:36:26.076Z,84.62
2023-03-31T13:39:04.608Z,84.53
2023-03-31T13:41:46.360Z,85.41
2023-03-31T13:44:38.478Z,85.01
2023-03-31T13:47:25.903Z,86.57
2023-03-31T13:50:27.120Z,85.44
2023-03-31T13:53:06.678Z,86.52
2023-03-31T13:56:14.201Z,86.14
2023-03-31T13:59:17.825Z,86.10
2023-03-31T14:02:14.880Z,86.32
2023-03-31T14:05:18.324Z,90.80
2023-03-31T14:07:49.871Z,91.85
2023-03-31T14:10:29.898Z,92.23
2023-03-31T14:13:12.984Z,91.95
2023-03-31T14:15:45.583Z,91.15
2023-03-31T14:18:20.230Z,88.41
2023-03-31T14:20:58.311Z,87.07
2023-03-31T14:23:41.221Z,84.08
2023-03-31T14:26:19.705Z,83.16
2023-03-31T14:29:03.679Z,83.97
2023-03-31T14:31:38.873Z,84.25
2023-03-31T14:34:26.325Z,84.98
2023-03-31T14:37:00.326Z,85.64
2023-03-31T14:39:32.231Z,82.91
2023-03-31T14:42:03.973Z,82.27
2023-03-31T14:44:32.290Z,84.27
2023-03-31T14:47:01.835Z,85.69
2023-03-31T14:49:36.842Z,85.04
2023-03-31T14:52:15.084Z,84.99
2023-03-31T14:54:47.387Z,84.13
2023-03-31T14:57:19.410Z,83.96
2023-03-31T14:59:50.730Z,80.90
2023-03-31T15:02:24.838Z,81.17
2023-03-31T15:04:56.569Z,82.09
2023-03-31T15:07:25.440Z,81.36
2023-03-31T15:09:54.063Z,80.12
2023-03-31T15:12:24.083Z,82.25
2023-03-31T15:14:56.061Z,81.72
2023-03-31T15:17:26.720Z,80.36
2023-03-31T15:19:58.083Z,80.18
2023-03-31T15:22:28.054Z,80.97
2023-03-31T15:24:56.818Z,80.29
2023-03-31T15:27:37.769Z,78.38
2023-03-31T15:30:09.193Z,76.92
2023-03-31T15:32:40.108Z,79.09
2023-03-31T15:35:22.530Z,77.71
2023-03-31T15:37:53.102Z,75.93
2023-03-31T15:40:24.244Z,75.58
2023-03-31T15:43:06.308Z,75.30
2023-03-31T15:45:52.700Z,74.38
2023-03-31T15:48:24.631Z,75.28
2023-03-31T15:50:54.262Z,74.51
2023-03-31T15:53:32.395Z,75.74
2023-03-31T15:56:01.890Z,74.35
2023-03-31T15:58:56.047Z,74.42
2023-03-31T16:01:25.211Z,74.42
2023-03-31T16:03:57.185Z,73.76
2023-03-31T16:06:37.216Z,74.26
2023-03-31T16:09:08.332Z,75.23
2023-03-31T16:11:43.250Z,74.30
2023-03-31T16:14:19.023Z,76.50
2023-03-31T16:16:50.403Z,77.85
2023-03-31T16:19:19.430Z,78.65
2023-03-31T16:21:52.697Z,79.69
2023-03-31T16:24:22.470Z,78.81
2023-03-31T16:26:50.467Z,79.25
2023-03-31T16:29:22.996Z,79.36
2023-03-31T16:31:51.323Z,80.40
2023-03-31T16:34:19.328Z,81.40
2023-03-31T16:36:49.419Z,81.72
2023-03-31T16:39:17.458Z,82.00
2023-03-31T16:41:45.339Z,82.40
2023-03-31T16:44:13.438Z,81.96
2023-03-31T16:46:41.481Z,82.47
2023-03-31T16:49:09.505Z,81.46
2023-03-31T16:51:37.490Z,82.64
2023-03-31T16:54:08.047Z,82.45
2023-03-31T16:56:36.424Z,83.57
2023-03-31T16:59:04.776Z,83.91
2023-03-31T17:01:32.846Z,84.24
2023-03-31T17:04:01.031Z,83.53
2023-03-31T17:06:29.122Z,84.42
2023-03-31T17:08:57.184Z,83.51
2023-03-31T17:11:27.476Z,84.40
2023-03-31T17:13:56.858Z,83.75
2023-03-31T17:16:32.810Z,83.95
2023-03-31T17:19:12.805Z,84.52
2023-03-31T17:21:40.814Z,84.88
2023-03-31T17:24:09.141Z,83.08
2023-03-31T17:26:39.437Z,82.95
2023-03-31T17:29:07.598Z,83.93
2023-03-31T17:31:35.760Z,82.84
2023-03-31T17:34:03.796Z,84.87
2023-03-31T17:36:31.741Z,85.31
2023-03-31T17:39:00.227Z,85.13
2023-03-31T17:41:29.312Z,85.51
2023-03-31T17:43:59.163Z,85.43
2023-03-31T17:46:27.303Z,84.68
2023-03-31T17:48:58.357Z,85.48
2023-03-31T17:51:27.838Z,85.12
2023-03-31T17:53:56.364Z,85.26
2023-03-31T17:56:24.780Z,86.62
2023-03-31T17:58:53.925Z,86.26
2023-03-31T18:01:23.329Z,86.99
2023-03-31T18:03:51.454Z,87.13
2023-03-31T18:06:19.473Z,87.26
2023-03-31T18:08:47.877Z,87.77
2023-03-31T18:11:16.274Z,88.53
2023-03-31T18:13:44.758Z,88.58
2023-03-31T18:16:13.012Z,88.10
2023-03-31T18:18:43.865Z,88.34
2023-03-31T18:21:13.538Z,87.96
2023-03-31T18:23:41.941Z,88.09
2023-03-31T18:26:11.948Z,89.08
2023-03-31T18:28:40.796Z,88.99
2023-03-31T18:31:09.910Z,88.83
2023-03-31T18:33:38.097Z,88.37
2023-03-31T18:36:08.134Z,88.32
2023-03-31T18:38:37.192Z,88.07
2023-03-31T18:41:05.859Z,88.46
2023-03-31T18:43:43.482Z,88.22
2023-03-31T18:46:11.924Z,88.06
2023-03-31T18:48:41.934Z,88.11
2023-03-31T18:51:18.440Z,88.40
2023-03-31T18:53:46.468Z,87.78
2023-03-31T18:56:14.789Z,87.77
2023-03-31T18:58:44.064Z,88.01
2023-03-31T19:01:12.146Z,88.49
2023-03-31T19:03:40.177Z,88.60
2023-03-31T19:06:11.042Z,88.38
2023-03-31T19:08:40.882Z,88.50
2023-03-31T19:11:11.066Z,88.50
2023-03-31T19:13:39.984Z,88.67
2023-03-31T19:16:08.147Z,88.33
2023-03-31T19:18:36.293Z,88.13
2023-03-31T19:21:04.821Z,88.34
2023-03-31T19:23:33.405Z,88.55
2023-03-31T19:26:03.242Z,88.27
2023-03-31T19:28:31.591Z,89.47
2023-03-31T19:31:00.171Z,88.55
2023-03-31T19:33:28.464Z,89.04
2023-03-31T19:35:57.729Z,89.62
2023-03-31T19:38:27.141Z,89.11
2023-03-31T19:40:55.220Z,89.02
2023-03-31T19:43:26.569Z,89.10
2023-03-31T19:45:56.855Z,89.01
2023-03-31T19:48:26.622Z,89.96
2023-03-31T19:50:56.317Z,89.58
2023-03-31T19:53:25.081Z,89.29
2023-03-31T19:55:57.322Z,89.04
2023-03-31T19:58:27.157Z,88.48
2023-03-31T20:00:56.174Z,88.08
2023-03-31T20:03:25.887Z,88.03
2023-03-31T20:06:02.272Z,87.49
2023-03-31T20:08:30.243Z,87.94
2023-03-31T20:11:00.354Z,87.50
2023-03-31T20:13:29.825Z,87.79
2023-03-31T20:16:02.815Z,88.92
2023-03-31T20:18:31.124Z,90.68
2023-03-31T20:21:07.068Z,91.05
2023-03-31T20:23:36.543Z,92.55
2023-03-31T20:26:09.129Z,92.50
2023-03-31T20:28:47.014Z,92.75
2023-03-31T20:31:17.705Z,93.11
2023-03-31T20:33:46.193Z,92.50
2023-03-31T20:36:19.030Z,92.74
2023-03-31T20:38:51.487Z,92.02
2023-03-31T20:41:20.823Z,92.52
2023-03-31T20:43:51.083Z,92.18
2023-03-31T20:46:19.867Z,92.81
2023-03-31T20:48:50.673Z,92.99
2023-03-31T20:51:21.286Z,92.52
2023-03-31T20:54:01.346Z,92.24
2023-03-31T20:56:31.115Z,92.05
2023-03-31T20:59:01.047Z,92.34
2023-03-31T21:01:32.226Z,91.75
2023-03-31T21:04:02.492Z,91.75
2023-03-31T21:06:33.471Z,91.11
2023-03-31T21:09:01.594Z,91.86
2023-03-31T21:11:29.754Z,91.43
2023-03-31T21:13:57.810Z,91.54
2023-03-31T21:16:36.838Z,91.64
2023-03-31T21:19:05.228Z,92.34
2023-03-31T21:21:35.301Z,91.30
2023-03-31T21:24:03.333Z,92.42
2023-03-31T21:26:31.419Z,92.68
2023-03-31T21:29:09.121Z,92.09
2023-03-31T21:31:38.808Z,92.19
2023-03-31T21:34:06.718Z,92.30
2023-03-31T21:36:35.001Z,91.95
2023-03-31T21:39:03.096Z,91.41
2023-03-31T21:41:37.782Z,91.48
2023-03-31T21:44:06.500Z,91.92
2023-03-31T21:46:34.842Z,91.93
2023-03-31T21:49:05.332Z,92.95
2023-03-31T21:51:33.934Z,92.22
2023-03-31T21:54:04.744Z,92.96
2023-03-31T21:56:45.041Z,92.03
2023-03-31T21:59:13.070Z,93.21
2023-03-31T22:01:41.897Z,92.18
2023-03-31T22:04:12.854Z,91.38
2023-03-31T22:06:40.973Z,91.20
2023-03-31T22:09:09.192Z,91.10
2023-03-31T22:11:37.100Z,91.38
2023-03-31T22:14:06.329Z,92.01
2023-03-31T22:16:53.247Z,91.63
2023-03-31T22:19:22.933Z,90.89
2023-03-31T22:21:58.336Z,91.59
2023-03-31T22:24:26.318Z,90.88
2023-03-31T22:26:54.470Z,92.25
2023-03-31T22:29:22.930Z,91.92
2023-03-31T22:31:51.031Z,92.35
2023-03-31T22:34:20.057Z,91.87
2023-03-31T22:36:49.845Z,92.69
2023-03-31T22:39:18.282Z,92.89
2023-03-31T22:41:52.379Z,93.01
2023-03-31T22:44:20.376Z,92.92
2023-03-31T22:46:50.810Z,94.14
2023-03-31T22:49:18.924Z,94.30
2023-03-31T22:51:47.742Z,93.87
2023-03-31T22:54:17.905Z,93.79
2023-03-31T22:56:46.334Z,93.90
2023-03-31T22:59:14.696Z,94.55
2023-03-31T23:01:43.056Z,94.54
2023-03-31T23:04:24.102Z,94.09
2023-03-31T23:06:52.895Z,94.15
2023-03-31T23:09:23.722Z,94.14
2023-03-31T23:11:52.764Z,94.44
2023-03-31T23:14:21.562Z,94.57
2023-03-31T23:16:49.776Z,94.91
2023-03-31T23:19:19.425Z,94.54
2023-03-31T23:21:47.382Z,94.84
2023-03-31T23:24:19.228Z,94.26
2023-03-31T23:26:48.624Z,93.79
2023-03-31T23:29:16.768Z,94.54
2023-03-31T23:31:45.881Z,94.92
2023-03-31T23:34:14.757Z,94.39
2023-03-31T23:36:43.205Z,94.67
2023-03-31T23:39:23.499Z,94.67
2023-03-31T23:42:02.002Z,94.39
2023-03-31T23:44:30.485Z,94.16
2023-03-31T23:46:58.722Z,94.36
2023-03-31T23:49:27.096Z,94.52
2023-03-31T23:51:55.346Z,93.68
2023-03-31T23:54:23.438Z,94.10
2023-03-31T23:56:51.986Z,94.88
2023-03-31T23:59:21.457Z,94.40
